sensor_id;sensor_type;location;lat;lon;timestamp;P1;durP1;ratioP1;P2;durP2;ratioP2
38053;SDS011;23859;50.672;7.164;2023-06-14T00:01:58;8.80;;;5.38;;
38053;SDS011;23859;50.672;7.164;2023-06-14T00:04:24;6.40;;;5.20;;
38053;SDS011;23859;50.672;7.164;2023-06-14T00:06:50;7.95;;;5.00;;
38053;SDS011;23859;50.672;7.164;2023-06-14T00:09:17;9.95;;;5.13;;
38053;SDS011;23859;50.672;7.164;2023-06-14T00:11:43;9.30;;;5.70;;
38053;SDS011;23859;50.672;7.164;2023-06-14T00:14:10;6.47;;;5.25;;
38053;SDS011;23859;50.672;7.164;2023-06-14T00:16:36;6.57;;;4.63;;
38053;SDS011;23859;50.672;7.164;2023-06-14T00:19:03;7.20;;;5.38;;
38053;SDS011;23859;50.672;7.164;2023-06-14T00:21:30;8.90;;;5.13;;
38053;SDS011;23859;50.672;7.164;2023-06-14T00:23:59;10.38;;;5.47;;
38053;SDS011;23859;50.672;7.164;2023-06-14T00:26:25;7.65;;;5.18;;
38053;SDS011;23859;50.672;7.164;2023-06-14T00:28:52;6.90;;;5.15;;
38053;SDS011;23859;50.672;7.164;2023-06-14T00:31:21;9.00;;;5.47;;
38053;SDS011;23859;50.672;7.164;2023-06-14T00:33:48;6.90;;;5.07;;
38053;SDS011;23859;50.672;7.164;2023-06-14T00:36:14;10.43;;;5.28;;
38053;SDS011;23859;50.672;7.164;2023-06-14T00:38:40;8.52;;;5.32;;
38053;SDS011;23859;50.672;7.164;2023-06-14T00:41:06;6.55;;;5.18;;
38053;SDS011;23859;50.672;7.164;2023-06-14T00:43:32;6.07;;;4.80;;
38053;SDS011;23859;50.672;7.164;2023-06-14T00:45:59;7.88;;;4.95;;
38053;SDS011;23859;50.672;7.164;2023-06-14T00:48:26;7.38;;;4.93;;
38053;SDS011;23859;50.672;7.164;2023-06-14T00:50:53;6.38;;;5.35;;
38053;SDS011;23859;50.672;7.164;2023-06-14T00:53:20;10.27;;;5.20;;
38053;SDS011;23859;50.672;7.164;2023-06-14T00:55:47;10.32;;;5.50;;
38053;SDS011;23859;50.672;7.164;2023-06-14T00:58:14;7.63;;;5.45;;
38053;SDS011;23859;50.672;7.164;2023-06-14T01:00:41;6.85;;;4.85;;
38053;SDS011;23859;50.672;7.164;2023-06-14T01:03:07;8.82;;;5.45;;
38053;SDS011;23859;50.672;7.164;2023-06-14T01:05:37;9.48;;;5.22;;
38053;SDS011;23859;50.672;7.164;2023-06-14T01:08:21;9.55;;;5.65;;
38053;SDS011;23859;50.672;7.164;2023-06-14T01:10:56;9.25;;;5.97;;
38053;SDS011;23859;50.672;7.164;2023-06-14T01:13:33;8.48;;;5.68;;
38053;SDS011;23859;50.672;7.164;2023-06-14T01:16:02;12.20;;;6.05;;
38053;SDS011;23859;50.672;7.164;2023-06-14T01:18:30;11.45;;;6.03;;
38053;SDS011;23859;50.672;7.164;2023-06-14T01:20:57;7.60;;;5.70;;
38053;SDS011;23859;50.672;7.164;2023-06-14T01:23:23;8.30;;;5.55;;
38053;SDS011;23859;50.672;7.164;2023-06-14T01:25:50;8.90;;;6.55;;
38053;SDS011;23859;50.672;7.164;2023-06-14T01:28:20;7.35;;;5.22;;
38053;SDS011;23859;50.672;7.164;2023-06-14T01:30:50;7.05;;;5.88;;
38053;SDS011;23859;50.672;7.164;2023-06-14T01:33:20;8.57;;;5.50;;
38053;SDS011;23859;50.672;7.164;2023-06-14T01:35:49;9.68;;;5.90;;
38053;SDS011;23859;50.672;7.164;2023-06-14T01:38:17;6.65;;;5.30;;
38053;SDS011;23859;50.672;7.164;2023-06-14T01:40:48;8.68;;;5.07;;
38053;SDS011;23859;50.672;7.164;2023-06-14T01:43:16;8.70;;;5.95;;
38053;SDS011;23859;50.672;7.164;2023-06-14T01:45:44;7.97;;;5.35;;
38053;SDS011;23859;50.672;7.164;2023-06-14T01:48:12;10.73;;;5.57;;
38053;SDS011;23859;50.672;7.164;2023-06-14T01:50:39;8.82;;;5.50;;
38053;SDS011;23859;50.672;7.164;2023-06-14T01:53:08;9.07;;;5.78;;
38053;SDS011;23859;50.672;7.164;2023-06-14T01:55:35;7.90;;;5.43;;
38053;SDS011;23859;50.672;7.164;2023-06-14T01:58:09;10.65;;;5.60;;
38053;SDS011;23859;50.672;7.164;2023-06-14T02:00:35;9.70;;;5.85;;
38053;SDS011;23859;50.672;7.164;2023-06-14T02:03:01;8.90;;;5.45;;
38053;SDS011;23859;50.672;7.164;2023-06-14T02:05:29;9.45;;;6.32;;
38053;SDS011;23859;50.672;7.164;2023-06-14T02:07:55;9.00;;;5.88;;
38053;SDS011;23859;50.672;7.164;2023-06-14T02:10:21;14.43;;;5.80;;
38053;SDS011;23859;50.672;7.164;2023-06-14T02:12:47;10.50;;;5.80;;
38053;SDS011;23859;50.672;7.164;2023-06-14T02:15:13;8.55;;;5.10;;
38053;SDS011;23859;50.672;7.164;2023-06-14T02:17:42;7.10;;;5.50;;
38053;SDS011;23859;50.672;7.164;2023-06-14T02:20:09;7.82;;;5.72;;
38053;SDS011;23859;50.672;7.164;2023-06-14T02:22:35;7.28;;;5.53;;
38053;SDS011;23859;50.672;7.164;2023-06-14T02:25:01;8.55;;;5.70;;
38053;SDS011;23859;50.672;7.164;2023-06-14T02:27:27;9.25;;;6.03;;
38053;SDS011;23859;50.672;7.164;2023-06-14T02:29:53;10.10;;;6.05;;
38053;SDS011;23859;50.672;7.164;2023-06-14T02:32:20;9.40;;;5.97;;
38053;SDS011;23859;50.672;7.164;2023-06-14T02:34:46;8.35;;;6.22;;
38053;SDS011;23859;50.672;7.164;2023-06-14T02:37:14;9.38;;;5.68;;
38053;SDS011;23859;50.672;7.164;2023-06-14T02:39:41;10.00;;;6.30;;
38053;SDS011;23859;50.672;7.164;2023-06-14T02:42:07;7.68;;;5.72;;
38053;SDS011;23859;50.672;7.164;2023-06-14T02:44:33;11.60;;;6.20;;
38053;SDS011;23859;50.672;7.164;2023-06-14T02:47:00;10.00;;;5.18;;
38053;SDS011;23859;50.672;7.164;2023-06-14T02:49:26;11.43;;;5.75;;
38053;SDS011;23859;50.672;7.164;2023-06-14T02:51:52;8.52;;;5.88;;
38053;SDS011;23859;50.672;7.164;2023-06-14T02:54:18;6.10;;;5.50;;
38053;SDS011;23859;50.672;7.164;2023-06-14T02:56:44;9.27;;;5.47;;
38053;SDS011;23859;50.672;7.164;2023-06-14T02:59:10;9.07;;;5.95;;
38053;SDS011;23859;50.672;7.164;2023-06-14T03:01:38;8.43;;;6.07;;
38053;SDS011;23859;50.672;7.164;2023-06-14T03:04:06;8.27;;;6.25;;
38053;SDS011;23859;50.672;7.164;2023-06-14T03:06:32;7.80;;;5.50;;
38053;SDS011;23859;50.672;7.164;2023-06-14T03:08:59;8.30;;;5.70;;
38053;SDS011;23859;50.672;7.164;2023-06-14T03:11:28;7.72;;;5.88;;
38053;SDS011;23859;50.672;7.164;2023-06-14T03:13:55;8.52;;;6.03;;
38053;SDS011;23859;50.672;7.164;2023-06-14T03:16:21;8.45;;;6.00;;
38053;SDS011;23859;50.672;7.164;2023-06-14T03:18:51;8.52;;;6.38;;
38053;SDS011;23859;50.672;7.164;2023-06-14T03:21:18;7.55;;;5.63;;
38053;SDS011;23859;50.672;7.164;2023-06-14T03:23:48;13.27;;;6.20;;
38053;SDS011;23859;50.672;7.164;2023-06-14T03:26:14;9.10;;;6.07;;
38053;SDS011;23859;50.672;7.164;2023-06-14T03:28:43;8.80;;;6.30;;
38053;SDS011;23859;50.672;7.164;2023-06-14T03:31:12;7.25;;;5.80;;
38053;SDS011;23859;50.672;7.164;2023-06-14T03:33:38;14.52;;;6.75;;
38053;SDS011;23859;50.672;7.164;2023-06-14T03:36:05;9.13;;;6.53;;
38053;SDS011;23859;50.672;7.164;2023-06-14T03:38:31;9.43;;;6.00;;
38053;SDS011;23859;50.672;7.164;2023-06-14T03:40:58;10.40;;;6.47;;
38053;SDS011;23859;50.672;7.164;2023-06-14T03:43:24;12.77;;;6.20;;
38053;SDS011;23859;50.672;7.164;2023-06-14T03:45:50;10.73;;;6.75;;
38053;SDS011;23859;50.672;7.164;2023-06-14T03:48:16;7.75;;;6.43;;
38053;SDS011;23859;50.672;7.164;2023-06-14T03:50:42;10.70;;;6.30;;
38053;SDS011;23859;50.672;7.164;2023-06-14T03:53:09;9.20;;;6.50;;
38053;SDS011;23859;50.672;7.164;2023-06-14T03:55:35;8.60;;;6.90;;
38053;SDS011;23859;50.672;7.164;2023-06-14T03:58:02;8.52;;;6.32;;
38053;SDS011;23859;50.672;7.164;2023-06-14T04:00:29;9.18;;;6.43;;
38053;SDS011;23859;50.672;7.164;2023-06-14T04:02:55;10.73;;;6.25;;
38053;SDS011;23859;50.672;7.164;2023-06-14T04:05:21;7.15;;;5.75;;
38053;SDS011;23859;50.672;7.164;2023-06-14T04:07:51;8.20;;;6.38;;
38053;SDS011;23859;50.672;7.164;2023-06-14T04:10:20;11.15;;;6.10;;
38053;SDS011;23859;50.672;7.164;2023-06-14T04:12:46;13.15;;;7.32;;
38053;SDS011;23859;50.672;7.164;2023-06-14T04:15:13;9.40;;;6.20;;
38053;SDS011;23859;50.672;7.164;2023-06-14T04:17:39;10.50;;;6.30;;
38053;SDS011;23859;50.672;7.164;2023-06-14T04:20:05;9.43;;;6.13;;
38053;SDS011;23859;50.672;7.164;2023-06-14T04:22:34;10.45;;;6.22;;
38053;SDS011;23859;50.672;7.164;2023-06-14T04:25:01;8.18;;;6.20;;
38053;SDS011;23859;50.672;7.164;2023-06-14T04:27:29;10.13;;;6.22;;
38053;SDS011;23859;50.672;7.164;2023-06-14T04:29:59;12.70;;;7.38;;
38053;SDS011;23859;50.672;7.164;2023-06-14T04:32:27;9.35;;;6.22;;
38053;SDS011;23859;50.672;7.164;2023-06-14T04:34:58;9.32;;;6.07;;
38053;SDS011;23859;50.672;7.164;2023-06-14T04:37:27;8.35;;;6.47;;
38053;SDS011;23859;50.672;7.164;2023-06-14T04:39:55;8.57;;;6.10;;
38053;SDS011;23859;50.672;7.164;2023-06-14T04:42:22;10.63;;;6.68;;
38053;SDS011;23859;50.672;7.164;2023-06-14T04:44:50;11.52;;;6.15;;
38053;SDS011;23859;50.672;7.164;2023-06-14T04:47:20;10.75;;;7.10;;
38053;SDS011;23859;50.672;7.164;2023-06-14T04:49:46;10.70;;;7.18;;
38053;SDS011;23859;50.672;7.164;2023-06-14T04:52:12;11.43;;;7.13;;
38053;SDS011;23859;50.672;7.164;2023-06-14T04:54:39;12.80;;;6.95;;
38053;SDS011;23859;50.672;7.164;2023-06-14T04:57:11;20.10;;;7.97;;
38053;SDS011;23859;50.672;7.164;2023-06-14T04:59:42;10.68;;;7.03;;
38053;SDS011;23859;50.672;7.164;2023-06-14T05:02:09;10.93;;;6.55;;
38053;SDS011;23859;50.672;7.164;2023-06-14T05:04:36;9.77;;;7.13;;
38053;SDS011;23859;50.672;7.164;2023-06-14T05:07:09;9.40;;;6.78;;
38053;SDS011;23859;50.672;7.164;2023-06-14T05:09:35;14.13;;;7.28;;
38053;SDS011;23859;50.672;7.164;2023-06-14T05:12:02;10.48;;;7.18;;
38053;SDS011;23859;50.672;7.164;2023-06-14T05:14:28;11.55;;;7.85;;
38053;SDS011;23859;50.672;7.164;2023-06-14T05:16:54;10.48;;;6.55;;
38053;SDS011;23859;50.672;7.164;2023-06-14T05:19:21;10.05;;;6.78;;
38053;SDS011;23859;50.672;7.164;2023-06-14T05:21:47;10.75;;;6.72;;
38053;SDS011;23859;50.672;7.164;2023-06-14T05:24:15;9.90;;;7.15;;
38053;SDS011;23859;50.672;7.164;2023-06-14T05:26:45;9.60;;;5.68;;
38053;SDS011;23859;50.672;7.164;2023-06-14T05:29:11;10.35;;;5.75;;
38053;SDS011;23859;50.672;7.164;2023-06-14T05:31:38;7.47;;;4.75;;
38053;SDS011;23859;50.672;7.164;2023-06-14T05:34:04;10.52;;;5.40;;
38053;SDS011;23859;50.672;7.164;2023-06-14T05:36:30;10.90;;;5.28;;
38053;SDS011;23859;50.672;7.164;2023-06-14T05:38:56;9.52;;;5.03;;
38053;SDS011;23859;50.672;7.164;2023-06-14T05:41:28;6.53;;;4.53;;
38053;SDS011;23859;50.672;7.164;2023-06-14T05:43:54;11.20;;;4.80;;
38053;SDS011;23859;50.672;7.164;2023-06-14T05:46:21;6.45;;;3.83;;
38053;SDS011;23859;50.672;7.164;2023-06-14T05:48:50;5.60;;;4.38;;
38053;SDS011;23859;50.672;7.164;2023-06-14T05:51:17;7.82;;;4.53;;
38053;SDS011;23859;50.672;7.164;2023-06-14T05:53:46;6.38;;;4.53;;
38053;SDS011;23859;50.672;7.164;2023-06-14T05:56:15;5.43;;;4.32;;
38053;SDS011;23859;50.672;7.164;2023-06-14T05:58:45;6.40;;;4.53;;
38053;SDS011;23859;50.672;7.164;2023-06-14T06:01:12;9.55;;;5.20;;
38053;SDS011;23859;50.672;7.164;2023-06-14T06:03:38;9.15;;;4.20;;
38053;SDS011;23859;50.672;7.164;2023-06-14T06:06:05;10.13;;;5.07;;
38053;SDS011;23859;50.672;7.164;2023-06-14T06:08:33;7.22;;;4.70;;
38053;SDS011;23859;50.672;7.164;2023-06-14T06:11:00;6.57;;;5.13;;
38053;SDS011;23859;50.672;7.164;2023-06-14T06:13:26;12.10;;;4.47;;
38053;SDS011;23859;50.672;7.164;2023-06-14T06:15:53;11.27;;;4.70;;
38053;SDS011;23859;50.672;7.164;2023-06-14T06:18:19;9.32;;;4.80;;
38053;SDS011;23859;50.672;7.164;2023-06-14T06:20:45;6.65;;;4.32;;
38053;SDS011;23859;50.672;7.164;2023-06-14T06:23:12;5.82;;;4.22;;
38053;SDS011;23859;50.672;7.164;2023-06-14T06:25:38;7.20;;;4.53;;
38053;SDS011;23859;50.672;7.164;2023-06-14T06:28:05;6.60;;;4.50;;
38053;SDS011;23859;50.672;7.164;2023-06-14T06:30:31;9.55;;;4.47;;
38053;SDS011;23859;50.672;7.164;2023-06-14T06:32:57;7.03;;;4.40;;
38053;SDS011;23859;50.672;7.164;2023-06-14T06:35:23;8.52;;;4.03;;
38053;SDS011;23859;50.672;7.164;2023-06-14T06:37:49;13.68;;;5.07;;
38053;SDS011;23859;50.672;7.164;2023-06-14T06:40:15;5.63;;;3.53;;
38053;SDS011;23859;50.672;7.164;2023-06-14T06:42:41;8.10;;;4.15;;
38053;SDS011;23859;50.672;7.164;2023-06-14T06:45:07;9.75;;;4.00;;
38053;SDS011;23859;50.672;7.164;2023-06-14T06:47:34;10.93;;;4.05;;
38053;SDS011;23859;50.672;7.164;2023-06-14T06:50:00;7.15;;;3.92;;
38053;SDS011;23859;50.672;7.164;2023-06-14T06:52:26;7.43;;;3.47;;
38053;SDS011;23859;50.672;7.164;2023-06-14T06:54:52;5.68;;;3.58;;
38053;SDS011;23859;50.672;7.164;2023-06-14T06:57:21;5.88;;;3.75;;
38053;SDS011;23859;50.672;7.164;2023-06-14T06:59:50;10.80;;;4.28;;
38053;SDS011;23859;50.672;7.164;2023-06-14T07:02:16;8.60;;;3.58;;
38053;SDS011;23859;50.672;7.164;2023-06-14T07:04:42;6.50;;;3.55;;
38053;SDS011;23859;50.672;7.164;2023-06-14T07:07:08;8.55;;;3.47;;
38053;SDS011;23859;50.672;7.164;2023-06-14T07:09:35;6.80;;;3.35;;
38053;SDS011;23859;50.672;7.164;2023-06-14T07:12:01;6.53;;;3.38;;
38053;SDS011;23859;50.672;7.164;2023-06-14T07:14:27;5.68;;;3.20;;
38053;SDS011;23859;50.672;7.164;2023-06-14T07:16:55;5.30;;;2.75;;
38053;SDS011;23859;50.672;7.164;2023-06-14T07:19:21;3.17;;;2.67;;
38053;SDS011;23859;50.672;7.164;2023-06-14T07:21:47;6.47;;;2.72;;
38053;SDS011;23859;50.672;7.164;2023-06-14T07:24:13;3.72;;;2.45;;
38053;SDS011;23859;50.672;7.164;2023-06-14T07:26:39;3.72;;;3.10;;
38053;SDS011;23859;50.672;7.164;2023-06-14T07:29:05;7.30;;;2.45;;
38053;SDS011;23859;50.672;7.164;2023-06-14T07:31:31;4.75;;;2.60;;
38053;SDS011;23859;50.672;7.164;2023-06-14T07:33:57;5.82;;;3.10;;
38053;SDS011;23859;50.672;7.164;2023-06-14T07:36:23;3.50;;;2.58;;
38053;SDS011;23859;50.672;7.164;2023-06-14T07:38:49;3.30;;;2.08;;
38053;SDS011;23859;50.672;7.164;2023-06-14T07:41:15;5.60;;;2.58;;
38053;SDS011;23859;50.672;7.164;2023-06-14T07:43:41;4.97;;;2.60;;
38053;SDS011;23859;50.672;7.164;2023-06-14T07:46:08;4.93;;;2.17;;
38053;SDS011;23859;50.672;7.164;2023-06-14T07:48:34;4.22;;;2.65;;
38053;SDS011;23859;50.672;7.164;2023-06-14T07:51:01;3.72;;;2.63;;
38053;SDS011;23859;50.672;7.164;2023-06-14T07:53:27;6.45;;;2.60;;
38053;SDS011;23859;50.672;7.164;2023-06-14T07:55:53;4.82;;;2.08;;
38053;SDS011;23859;50.672;7.164;2023-06-14T07:58:19;3.20;;;1.98;;
38053;SDS011;23859;50.672;7.164;2023-06-14T08:00:45;3.42;;;2.15;;
38053;SDS011;23859;50.672;7.164;2023-06-14T08:03:12;4.90;;;2.22;;
38053;SDS011;23859;50.672;7.164;2023-06-14T08:05:38;4.72;;;2.10;;
38053;SDS011;23859;50.672;7.164;2023-06-14T08:08:07;4.72;;;2.10;;
38053;SDS011;23859;50.672;7.164;2023-06-14T08:10:33;4.47;;;1.95;;
38053;SDS011;23859;50.672;7.164;2023-06-14T08:12:59;4.85;;;1.75;;
38053;SDS011;23859;50.672;7.164;2023-06-14T08:15:25;5.35;;;2.13;;
38053;SDS011;23859;50.672;7.164;2023-06-14T08:17:51;2.90;;;1.98;;
38053;SDS011;23859;50.672;7.164;2023-06-14T08:20:17;3.83;;;2.10;;
38053;SDS011;23859;50.672;7.164;2023-06-14T08:22:43;3.28;;;2.10;;
38053;SDS011;23859;50.672;7.164;2023-06-14T08:25:11;3.20;;;2.30;;
38053;SDS011;23859;50.672;7.164;2023-06-14T08:27:37;2.92;;;2.00;;
38053;SDS011;23859;50.672;7.164;2023-06-14T08:30:03;4.15;;;2.15;;
38053;SDS011;23859;50.672;7.164;2023-06-14T08:32:29;3.63;;;1.88;;
38053;SDS011;23859;50.672;7.164;2023-06-14T08:34:56;2.53;;;1.95;;
38053;SDS011;23859;50.672;7.164;2023-06-14T08:37:22;3.92;;;2.22;;
38053;SDS011;23859;50.672;7.164;2023-06-14T08:39:48;4.03;;;2.13;;
38053;SDS011;23859;50.672;7.164;2023-06-14T08:42:14;4.65;;;1.90;;
38053;SDS011;23859;50.672;7.164;2023-06-14T08:44:43;3.15;;;2.30;;
38053;SDS011;23859;50.672;7.164;2023-06-14T08:47:09;2.67;;;2.05;;
38053;SDS011;23859;50.672;7.164;2023-06-14T08:49:36;4.05;;;1.77;;
38053;SDS011;23859;50.672;7.164;2023-06-14T08:52:05;3.58;;;2.22;;
38053;SDS011;23859;50.672;7.164;2023-06-14T08:54:35;3.08;;;1.77;;
38053;SDS011;23859;50.672;7.164;2023-06-14T08:57:09;3.80;;;1.75;;
38053;SDS011;23859;50.672;7.164;2023-06-14T08:59:37;3.28;;;1.80;;
38053;SDS011;23859;50.672;7.164;2023-06-14T09:02:11;5.20;;;1.92;;
38053;SDS011;23859;50.672;7.164;2023-06-14T09:04:39;2.25;;;1.95;;
38053;SDS011;23859;50.672;7.164;2023-06-14T09:07:06;2.28;;;1.70;;
38053;SDS011;23859;50.672;7.164;2023-06-14T09:09:40;3.03;;;1.77;;
38053;SDS011;23859;50.672;7.164;2023-06-14T09:12:10;2.70;;;1.90;;
38053;SDS011;23859;50.672;7.164;2023-06-14T09:14:37;2.80;;;1.88;;
38053;SDS011;23859;50.672;7.164;2023-06-14T09:17:05;2.90;;;1.92;;
38053;SDS011;23859;50.672;7.164;2023-06-14T09:19:31;2.65;;;1.65;;
38053;SDS011;23859;50.672;7.164;2023-06-14T09:21:58;3.25;;;1.77;;
38053;SDS011;23859;50.672;7.164;2023-06-14T09:24:25;4.28;;;2.25;;
38053;SDS011;23859;50.672;7.164;2023-06-14T09:26:51;5.32;;;1.90;;
38053;SDS011;23859;50.672;7.164;2023-06-14T09:29:18;2.58;;;1.83;;
38053;SDS011;23859;50.672;7.164;2023-06-14T09:31:47;2.92;;;1.90;;
38053;SDS011;23859;50.672;7.164;2023-06-14T09:34:13;5.68;;;2.03;;
38053;SDS011;23859;50.672;7.164;2023-06-14T09:36:41;3.03;;;2.17;;
38053;SDS011;23859;50.672;7.164;2023-06-14T09:39:07;2.78;;;1.95;;
38053;SDS011;23859;50.672;7.164;2023-06-14T09:41:37;5.85;;;1.70;;
38053;SDS011;23859;50.672;7.164;2023-06-14T09:44:06;5.75;;;1.83;;
38053;SDS011;23859;50.672;7.164;2023-06-14T09:46:33;3.47;;;2.00;;
38053;SDS011;23859;50.672;7.164;2023-06-14T09:49:00;2.63;;;1.75;;
38053;SDS011;23859;50.672;7.164;2023-06-14T09:51:28;3.45;;;1.58;;
38053;SDS011;23859;50.672;7.164;2023-06-14T09:54:01;2.05;;;1.52;;
38053;SDS011;23859;50.672;7.164;2023-06-14T09:56:30;3.40;;;2.03;;
38053;SDS011;23859;50.672;7.164;2023-06-14T09:58:57;2.67;;;1.58;;
38053;SDS011;23859;50.672;7.164;2023-06-14T10:01:24;4.43;;;1.90;;
38053;SDS011;23859;50.672;7.164;2023-06-14T10:03:55;5.85;;;2.28;;
38053;SDS011;23859;50.672;7.164;2023-06-14T10:06:27;4.57;;;1.98;;
38053;SDS011;23859;50.672;7.164;2023-06-14T10:08:56;4.55;;;1.88;;
38053;SDS011;23859;50.672;7.164;2023-06-14T10:11:26;2.67;;;2.08;;
38053;SDS011;23859;50.672;7.164;2023-06-14T10:13:54;2.42;;;2.20;;
38053;SDS011;23859;50.672;7.164;2023-06-14T10:16:27;2.03;;;1.67;;
38053;SDS011;23859;50.672;7.164;2023-06-14T10:24:20;2.53;;;1.52;;
38053;SDS011;23859;50.672;7.164;2023-06-14T10:26:58;6.40;;;1.90;;
38053;SDS011;23859;50.672;7.164;2023-06-14T10:29:26;3.78;;;1.67;;
38053;SDS011;23859;50.672;7.164;2023-06-14T10:31:57;3.20;;;1.80;;
38053;SDS011;23859;50.672;7.164;2023-06-14T10:34:25;4.78;;;1.73;;
38053;SDS011;23859;50.672;7.164;2023-06-14T10:37:02;2.28;;;1.55;;
38053;SDS011;23859;50.672;7.164;2023-06-14T10:39:28;5.07;;;1.95;;
38053;SDS011;23859;50.672;7.164;2023-06-14T10:41:55;3.17;;;1.60;;
38053;SDS011;23859;50.672;7.164;2023-06-14T10:46:49;3.10;;;1.77;;
38053;SDS011;23859;50.672;7.164;2023-06-14T10:49:18;3.40;;;1.90;;
38053;SDS011;23859;50.672;7.164;2023-06-14T10:51:46;3.78;;;1.75;;
38053;SDS011;23859;50.672;7.164;2023-06-14T10:54:16;2.75;;;1.67;;
38053;SDS011;23859;50.672;7.164;2023-06-14T10:56:49;3.00;;;1.88;;
38053;SDS011;23859;50.672;7.164;2023-06-14T10:59:16;2.78;;;1.77;;
38053;SDS011;23859;50.672;7.164;2023-06-14T11:01:56;5.43;;;1.67;;
38053;SDS011;23859;50.672;7.164;2023-06-14T11:04:33;6.57;;;1.80;;
38053;SDS011;23859;50.672;7.164;2023-06-14T11:07:36;3.83;;;1.80;;
38053;SDS011;23859;50.672;7.164;2023-06-14T11:12:47;2.28;;;1.75;;
38053;SDS011;23859;50.672;7.164;2023-06-14T11:15:14;3.75;;;1.67;;
38053;SDS011;23859;50.672;7.164;2023-06-14T11:17:49;2.50;;;1.80;;
38053;SDS011;23859;50.672;7.164;2023-06-14T11:20:18;2.13;;;1.90;;
38053;SDS011;23859;50.672;7.164;2023-06-14T11:22:44;3.95;;;2.17;;
38053;SDS011;23859;50.672;7.164;2023-06-14T11:25:11;3.03;;;1.55;;
38053;SDS011;23859;50.672;7.164;2023-06-14T11:27:37;4.72;;;1.88;;
38053;SDS011;23859;50.672;7.164;2023-06-14T11:30:06;1.77;;;1.48;;
38053;SDS011;23859;50.672;7.164;2023-06-14T11:32:34;1.50;;;1.20;;
38053;SDS011;23859;50.672;7.164;2023-06-14T11:35:00;2.10;;;1.27;;
38053;SDS011;23859;50.672;7.164;2023-06-14T11:37:30;2.22;;;1.27;;
38053;SDS011;23859;50.672;7.164;2023-06-14T11:40:00;2.25;;;1.38;;
38053;SDS011;23859;50.672;7.164;2023-06-14T11:42:28;3.63;;;1.50;;
38053;SDS011;23859;50.672;7.164;2023-06-14T11:44:55;3.60;;;1.40;;
38053;SDS011;23859;50.672;7.164;2023-06-14T11:47:21;0.80;;;0.75;;
38053;SDS011;23859;50.672;7.164;2023-06-14T11:49:48;4.25;;;1.20;;
38053;SDS011;23859;50.672;7.164;2023-06-14T11:52:14;2.65;;;1.02;;
38053;SDS011;23859;50.672;7.164;2023-06-14T11:54:41;5.88;;;1.10;;
38053;SDS011;23859;50.672;7.164;2023-06-14T11:57:07;3.10;;;1.60;;
38053;SDS011;23859;50.672;7.164;2023-06-14T11:59:40;2.17;;;1.75;;
38053;SDS011;23859;50.672;7.164;2023-06-14T12:02:08;1.35;;;1.10;;
38053;SDS011;23859;50.672;7.164;2023-06-14T12:04:40;2.92;;;1.30;;
38053;SDS011;23859;50.672;7.164;2023-06-14T12:07:10;1.65;;;1.00;;
38053;SDS011;23859;50.672;7.164;2023-06-14T12:12:25;1.90;;;1.13;;
38053;SDS011;23859;50.672;7.164;2023-06-14T12:14:51;3.53;;;1.20;;
38053;SDS011;23859;50.672;7.164;2023-06-14T12:17:18;5.03;;;1.42;;
38053;SDS011;23859;50.672;7.164;2023-06-14T12:19:45;1.75;;;1.10;;
38053;SDS011;23859;50.672;7.164;2023-06-14T12:22:13;2.80;;;1.48;;
38053;SDS011;23859;50.672;7.164;2023-06-14T12:24:40;2.90;;;1.23;;
38053;SDS011;23859;50.672;7.164;2023-06-14T12:27:09;1.77;;;0.98;;
38053;SDS011;23859;50.672;7.164;2023-06-14T12:29:37;2.55;;;1.40;;
38053;SDS011;23859;50.672;7.164;2023-06-14T12:32:03;1.98;;;1.35;;
38053;SDS011;23859;50.672;7.164;2023-06-14T12:34:29;3.90;;;1.30;;
38053;SDS011;23859;50.672;7.164;2023-06-14T12:36:56;2.22;;;1.30;;
38053;SDS011;23859;50.672;7.164;2023-06-14T12:39:22;2.35;;;1.42;;
38053;SDS011;23859;50.672;7.164;2023-06-14T12:41:49;3.13;;;1.20;;
38053;SDS011;23859;50.672;7.164;2023-06-14T12:44:15;3.05;;;1.25;;
38053;SDS011;23859;50.672;7.164;2023-06-14T12:46:42;3.85;;;1.70;;
38053;SDS011;23859;50.672;7.164;2023-06-14T12:49:09;6.25;;;1.20;;
38053;SDS011;23859;50.672;7.164;2023-06-14T12:51:36;4.47;;;1.30;;
38053;SDS011;23859;50.672;7.164;2023-06-14T12:54:03;2.42;;;1.40;;
38053;SDS011;23859;50.672;7.164;2023-06-14T12:56:29;5.00;;;1.92;;
38053;SDS011;23859;50.672;7.164;2023-06-14T12:58:55;2.10;;;1.13;;
38053;SDS011;23859;50.672;7.164;2023-06-14T13:01:21;2.50;;;1.65;;
38053;SDS011;23859;50.672;7.164;2023-06-14T13:03:47;3.92;;;1.67;;
38053;SDS011;23859;50.672;7.164;2023-06-14T13:06:15;2.85;;;1.40;;
38053;SDS011;23859;50.672;7.164;2023-06-14T13:08:42;3.40;;;1.80;;
38053;SDS011;23859;50.672;7.164;2023-06-14T13:11:08;2.53;;;1.73;;
38053;SDS011;23859;50.672;7.164;2023-06-14T13:13:34;5.78;;;1.90;;
38053;SDS011;23859;50.672;7.164;2023-06-14T13:16:00;3.92;;;1.55;;
38053;SDS011;23859;50.672;7.164;2023-06-14T13:18:26;2.58;;;1.58;;
38053;SDS011;23859;50.672;7.164;2023-06-14T13:20:52;3.05;;;1.85;;
38053;SDS011;23859;50.672;7.164;2023-06-14T13:23:18;1.65;;;1.50;;
38053;SDS011;23859;50.672;7.164;2023-06-14T13:25:44;3.08;;;1.70;;
38053;SDS011;23859;50.672;7.164;2023-06-14T13:28:10;2.55;;;1.48;;
38053;SDS011;23859;50.672;7.164;2023-06-14T13:30:36;3.17;;;1.73;;
38053;SDS011;23859;50.672;7.164;2023-06-14T13:33:02;4.72;;;1.88;;
38053;SDS011;23859;50.672;7.164;2023-06-14T13:35:28;3.22;;;1.80;;
38053;SDS011;23859;50.672;7.164;2023-06-14T13:37:54;4.82;;;1.70;;
38053;SDS011;23859;50.672;7.164;2023-06-14T13:40:21;3.63;;;2.17;;
38053;SDS011;23859;50.672;7.164;2023-06-14T13:42:47;4.45;;;1.58;;
38053;SDS011;23859;50.672;7.164;2023-06-14T13:45:13;1.92;;;1.70;;
38053;SDS011;23859;50.672;7.164;2023-06-14T13:47:40;4.63;;;1.63;;
38053;SDS011;23859;50.672;7.164;2023-06-14T13:50:06;3.13;;;2.47;;
38053;SDS011;23859;50.672;7.164;2023-06-14T13:52:32;4.50;;;1.75;;
38053;SDS011;23859;50.672;7.164;2023-06-14T13:54:59;2.83;;;2.15;;
38053;SDS011;23859;50.672;7.164;2023-06-14T13:57:25;3.83;;;2.05;;
38053;SDS011;23859;50.672;7.164;2023-06-14T13:59:52;2.13;;;1.88;;
38053;SDS011;23859;50.672;7.164;2023-06-14T14:02:20;2.55;;;1.80;;
38053;SDS011;23859;50.672;7.164;2023-06-14T14:04:46;2.55;;;2.05;;
38053;SDS011;23859;50.672;7.164;2023-06-14T14:07:18;2.53;;;2.03;;
38053;SDS011;23859;50.672;7.164;2023-06-14T14:09:45;3.05;;;1.90;;
38053;SDS011;23859;50.672;7.164;2023-06-14T14:12:12;1.85;;;1.70;;
38053;SDS011;23859;50.672;7.164;2023-06-14T14:14:39;2.97;;;2.08;;
38053;SDS011;23859;50.672;7.164;2023-06-14T14:17:05;6.07;;;2.20;;
38053;SDS011;23859;50.672;7.164;2023-06-14T14:19:31;2.03;;;1.80;;
38053;SDS011;23859;50.672;7.164;2023-06-14T14:21:58;1.58;;;1.48;;
38053;SDS011;23859;50.672;7.164;2023-06-14T14:24:24;2.65;;;1.80;;
38053;SDS011;23859;50.672;7.164;2023-06-14T14:26:50;5.55;;;2.20;;
38053;SDS011;23859;50.672;7.164;2023-06-14T14:29:18;5.53;;;2.20;;
38053;SDS011;23859;50.672;7.164;2023-06-14T14:31:44;3.17;;;1.60;;
38053;SDS011;23859;50.672;7.164;2023-06-14T14:34:11;3.35;;;2.08;;
38053;SDS011;23859;50.672;7.164;2023-06-14T14:36:37;2.00;;;1.80;;
38053;SDS011;23859;50.672;7.164;2023-06-14T14:39:07;3.40;;;1.92;;
38053;SDS011;23859;50.672;7.164;2023-06-14T14:41:33;2.75;;;1.88;;
38053;SDS011;23859;50.672;7.164;2023-06-14T14:43:59;3.85;;;2.38;;
38053;SDS011;23859;50.672;7.164;2023-06-14T14:46:26;3.47;;;2.10;;
38053;SDS011;23859;50.672;7.164;2023-06-14T14:48:53;2.50;;;1.70;;
38053;SDS011;23859;50.672;7.164;2023-06-14T14:51:19;4.47;;;1.70;;
38053;SDS011;23859;50.672;7.164;2023-06-14T14:53:45;2.75;;;2.00;;
38053;SDS011;23859;50.672;7.164;2023-06-14T14:56:11;6.53;;;2.13;;
38053;SDS011;23859;50.672;7.164;2023-06-14T14:58:37;4.60;;;1.80;;
38053;SDS011;23859;50.672;7.164;2023-06-14T15:01:03;2.80;;;1.90;;